| time (UTC) | temp C | wind direction | speed KPH | gust KPH | rain 1hr cm | rain 24hr cm | rain mn cm | humidity % | barometer mb |
| 20260504190027 | 18 | 72 | 1.6 | 11.3 | 0.00 | 0.00 | 0.00 | 47 | 1018.3 |
| 20260504184525 | 20 | 95 | 1.6 | 6.4 | 0.00 | 0.00 | 0.00 | 45 | 1018.5 |
| 20260504183022 | 18 | 98 | 1.6 | 4.8 | 0.00 | 0.00 | 0.00 | 49 | 1018.8 |
| 20260504181520 | 18 | 4 | 1.6 | 8.0 | 0.00 | 0.00 | 0.00 | 46 | 1019.0 |
| 20260504180019 | 18 | 108 | 1.6 | 8.0 | 0.00 | 0.00 | 0.00 | 48 | 1019.3 |
| 20260504174517 | 17 | 92 | 1.6 | 8.0 | 0.00 | 0.00 | 0.00 | 50 | 1019.4 |
| 20260504173015 | 17 | 299 | 1.6 | 6.4 | 0.00 | 0.00 | 0.00 | 49 | 1019.5 |
| 20260504171513 | 17 | 60 | 1.6 | 8.0 | 0.00 | 0.00 | 0.00 | 45 | 1019.6 |
| 20260504160108 | 14 | 97 | 1.6 | 6.4 | 0.00 | 0.00 | 0.00 | 47 | 1020.5 |
| 20260504090105 | 6 | 345 | 1.6 | 4.8 | 0.00 | 0.00 | 0.00 | 70 | 1020.5 |
| 20260504081554 | 6 | 9 | 1.6 | 4.8 | 0.00 | 0.00 | 0.00 | 68 | 1020.9 |
| 20260504044629 | 5 | 37 | 0.0 | 1.6 | 0.00 | 0.00 | 0.00 | 62 | 1021.5 |
| 20260504043028 | 5 | 37 | 1.6 | 3.2 | 0.00 | 0.00 | 0.00 | 62 | 1021.4 |
| 20260504041526 | 5 | 37 | 0.0 | 1.6 | 0.00 | 0.00 | 0.00 | 62 | 1021.4 |
| 20260504040024 | 5 | 37 | 0.0 | 1.6 | 0.00 | 0.00 | 0.00 | 61 | 1021.6 |
| 20260504034524 | 5 | 37 | 0.0 | 1.6 | 0.00 | 0.00 | 0.00 | 65 | 1021.4 |
| 20260504033023 | 5 | 37 | 0.0 | 0.0 | 0.00 | 0.00 | 0.00 | 64 | 1021.2 |
| 20260504031527 | 5 | 37 | 0.0 | 1.6 | 0.00 | 0.00 | 0.00 | 63 | 1021.2 |
| 20260504030024 | 5 | 37 | 0.0 | 1.6 | 0.00 | 0.00 | 0.00 | 62 | 1021.0 |
| 20260504024522 | 5 | 37 | 0.0 | 1.6 | 0.00 | 0.00 | 0.00 | 60 | 1021.3 |
| 20260504023022 | 5 | 37 | 0.0 | 1.6 | 0.00 | 0.00 | 0.00 | 61 | 1021.5 |
| 20260504021520 | 5 | 24 | 0.0 | 1.6 | 0.00 | 0.00 | 0.00 | 61 | 1021.6 |
| 20260504020019 | 5 | 24 | 0.0 | 1.6 | 0.00 | 0.00 | 0.00 | 59 | 1021.7 |
| 20260504014522 | 6 | 24 | 0.0 | 1.6 | 0.00 | 0.00 | 0.00 | 58 | 1021.4 |
| 20260504013021 | 6 | 24 | 0.0 | 1.6 | 0.00 | 0.00 | 0.00 | 57 | 1021.2 |
| 20260504011517 | 6 | 24 | 0.0 | 1.6 | 0.00 | 0.00 | 0.00 | 53 | 1021.3 |
| 20260504010017 | 6 | 24 | 0.0 | 3.2 | 0.00 | 0.00 | 0.00 | 51 | 1021.1 |
| 20260504004517 | 7 | 24 | 0.0 | 1.6 | 0.00 | 0.00 | 0.00 | 51 | 1021.0 |
| 20260504003016 | 7 | 24 | 0.0 | 1.6 | 0.00 | 0.00 | 0.00 | 47 | 1020.9 |
| 20260504001516 | 8 | 24 | 0.0 | 3.2 | 0.00 | 0.00 | 0.00 | 44 | 1020.9 |
| 20260504000014 | 8 | 34 | 0.0 | 1.6 | 0.00 | 0.00 | 0.00 | 42 | 1020.9 |
| 20260503234515 | 8 | 127 | 0.0 | 3.2 | 0.00 | 0.00 | 0.00 | 41 | 1020.8 |
| 20260503233014 | 9 | 358 | 0.0 | 1.6 | 0.00 | 0.00 | 0.00 | 43 | 1020.9 |
| 20260503231519 | 10 | 171 | 0.0 | 6.4 | 0.00 | 0.00 | 0.00 | 41 | 1020.7 |
| 20260503230013 | 10 | 210 | 0.0 | 9.7 | 0.00 | 0.00 | 0.00 | 39 | 1020.8 |
| 20260503224512 | 10 | 118 | 0.0 | 4.8 | 0.00 | 0.00 | 0.00 | 40 | 1020.8 |
| 20260503223013 | 10 | 72 | 0.0 | 4.8 | 0.00 | 0.00 | 0.00 | 41 | 1020.9 |
| 20260503221512 | 11 | 116 | 0.0 | 4.8 | 0.00 | 0.00 | 0.00 | 39 | 1021.0 |
| 20260503220011 | 11 | 137 | 0.0 | 6.4 | 0.00 | 0.00 | 0.00 | 38 | 1021.0 |
| 20260503214510 | 11 | 190 | 0.0 | 8.0 | 0.00 | 0.00 | 0.00 | 39 | 1021.0 |
| 20260503213011 | 11 | 65 | 1.6 | 4.8 | 0.00 | 0.00 | 0.00 | 37 | 1021.1 |
| 20260503211509 | 11 | 122 | 0.0 | 8.0 | 0.00 | 0.00 | 0.00 | 37 | 1021.3 |
| 20260503210010 | 11 | 172 | 0.0 | 3.2 | 0.00 | 0.00 | 0.00 | 38 | 1021.3 |
| 20260503204510 | 11 | 91 | 0.0 | 9.7 | 0.00 | 0.00 | 0.00 | 41 | 1021.5 |
| 20260503203008 | 11 | 81 | 1.6 | 8.0 | 0.00 | 0.00 | 0.00 | 39 | 1021.6 |
| 20260503201508 | 12 | 87 | 1.6 | 8.0 | 0.00 | 0.00 | 0.00 | 39 | 1021.8 |
| 20260503200007 | 12 | 73 | 1.6 | 6.4 | 0.00 | 0.00 | 0.00 | 38 | 1022.0 |
| 20260503194506 | 12 | 89 | 0.0 | 8.0 | 0.00 | 0.00 | 0.00 | 37 | 1022.1 |
| 20260503193006 | 11 | 73 | 1.6 | 8.0 | 0.00 | 0.00 | 0.00 | 37 | 1022.1 |
| 20260503191505 | 12 | 137 | 3.2 | 8.0 | 0.00 | 0.00 | 0.00 | 35 | 1022.4 |